sensor_id;sensor_type;location;lat;lon;timestamp;P1;durP1;ratioP1;P2;durP2;ratioP2
44434;SDS011;30138;20.964;105.830;2022-11-20T00:00:44;54.92;;;36.03;;
44434;SDS011;30138;20.964;105.830;2022-11-20T00:05:51;50.83;;;34.35;;
44434;SDS011;30138;20.964;105.830;2022-11-20T00:11:04;47.45;;;33.47;;
44434;SDS011;30138;20.964;105.830;2022-11-20T00:16:12;52.15;;;33.05;;
44434;SDS011;30138;20.964;105.830;2022-11-20T00:21:22;59.65;;;33.17;;
44434;SDS011;30138;20.964;105.830;2022-11-20T00:26:31;52.05;;;32.25;;
44434;SDS011;30138;20.964;105.830;2022-11-20T00:31:38;50.97;;;31.83;;
44434;SDS011;30138;20.964;105.830;2022-11-20T00:36:47;52.03;;;32.00;;
44434;SDS011;30138;20.964;105.830;2022-11-20T00:41:56;47.38;;;31.13;;
44434;SDS011;30138;20.964;105.830;2022-11-20T00:47:03;51.25;;;31.88;;
44434;SDS011;30138;20.964;105.830;2022-11-20T00:52:10;51.28;;;30.58;;
44434;SDS011;30138;20.964;105.830;2022-11-20T00:57:21;48.05;;;30.08;;
44434;SDS011;30138;20.964;105.830;2022-11-20T01:02:28;46.65;;;28.10;;
44434;SDS011;30138;20.964;105.830;2022-11-20T01:07:38;43.75;;;27.23;;
44434;SDS011;30138;20.964;105.830;2022-11-20T01:12:48;41.92;;;24.67;;
44434;SDS011;30138;20.964;105.830;2022-11-20T01:18:15;39.53;;;25.63;;
44434;SDS011;30138;20.964;105.830;2022-11-20T01:23:22;38.85;;;24.45;;
44434;SDS011;30138;20.964;105.830;2022-11-20T01:28:34;39.60;;;24.58;;
44434;SDS011;30138;20.964;105.830;2022-11-20T01:33:42;40.50;;;23.83;;
44434;SDS011;30138;20.964;105.830;2022-11-20T01:38:51;38.42;;;24.17;;
44434;SDS011;30138;20.964;105.830;2022-11-20T01:44:01;41.83;;;23.55;;
44434;SDS011;30138;20.964;105.830;2022-11-20T01:49:11;36.25;;;23.85;;
44434;SDS011;30138;20.964;105.830;2022-11-20T01:54:27;34.17;;;22.35;;
44434;SDS011;30138;20.964;105.830;2022-11-20T01:59:42;44.47;;;23.60;;
44434;SDS011;30138;20.964;105.830;2022-11-20T02:04:54;36.08;;;22.33;;
44434;SDS011;30138;20.964;105.830;2022-11-20T02:10:09;36.20;;;23.25;;
44434;SDS011;30138;20.964;105.830;2022-11-20T02:15:20;35.50;;;20.95;;
44434;SDS011;30138;20.964;105.830;2022-11-20T02:20:29;29.03;;;20.43;;
44434;SDS011;30138;20.964;105.830;2022-11-20T02:25:38;30.45;;;21.02;;
44434;SDS011;30138;20.964;105.830;2022-11-20T02:30:51;34.30;;;21.40;;
44434;SDS011;30138;20.964;105.830;2022-11-20T02:35:59;30.05;;;19.88;;
44434;SDS011;30138;20.964;105.830;2022-11-20T02:41:09;31.05;;;20.45;;
44434;SDS011;30138;20.964;105.830;2022-11-20T02:46:18;36.60;;;22.30;;
44434;SDS011;30138;20.964;105.830;2022-11-20T02:51:25;35.42;;;22.15;;
44434;SDS011;30138;20.964;105.830;2022-11-20T02:56:35;34.08;;;22.02;;
44434;SDS011;30138;20.964;105.830;2022-11-20T03:01:44;33.60;;;21.63;;
44434;SDS011;30138;20.964;105.830;2022-11-20T03:06:52;36.08;;;22.50;;
44434;SDS011;30138;20.964;105.830;2022-11-20T03:12:02;32.55;;;21.85;;
44434;SDS011;30138;20.964;105.830;2022-11-20T03:17:09;37.22;;;23.45;;
44434;SDS011;30138;20.964;105.830;2022-11-20T03:22:17;38.60;;;23.13;;
44434;SDS011;30138;20.964;105.830;2022-11-20T03:27:34;41.40;;;23.23;;
44434;SDS011;30138;20.964;105.830;2022-11-20T03:32:41;45.95;;;25.17;;
44434;SDS011;30138;20.964;105.830;2022-11-20T03:37:49;38.60;;;24.67;;
44434;SDS011;30138;20.964;105.830;2022-11-20T03:42:58;37.88;;;25.92;;
44434;SDS011;30138;20.964;105.830;2022-11-20T03:48:07;42.67;;;27.75;;
44434;SDS011;30138;20.964;105.830;2022-11-20T03:53:13;43.83;;;27.83;;
44434;SDS011;30138;20.964;105.830;2022-11-20T03:58:23;52.78;;;29.33;;
44434;SDS011;30138;20.964;105.830;2022-11-20T04:03:30;50.08;;;30.77;;
44434;SDS011;30138;20.964;105.830;2022-11-20T04:08:38;52.28;;;32.55;;
44434;SDS011;30138;20.964;105.830;2022-11-20T04:13:48;53.50;;;32.85;;
44434;SDS011;30138;20.964;105.830;2022-11-20T04:18:57;54.30;;;34.03;;
44434;SDS011;30138;20.964;105.830;2022-11-20T04:24:05;52.28;;;34.17;;
44434;SDS011;30138;20.964;105.830;2022-11-20T04:29:15;59.38;;;36.30;;
44434;SDS011;30138;20.964;105.830;2022-11-20T04:34:22;62.28;;;37.25;;
44434;SDS011;30138;20.964;105.830;2022-11-20T04:39:29;66.32;;;39.53;;
44434;SDS011;30138;20.964;105.830;2022-11-20T04:44:38;61.50;;;39.03;;
44434;SDS011;30138;20.964;105.830;2022-11-20T04:49:47;64.40;;;39.23;;
44434;SDS011;30138;20.964;105.830;2022-11-20T04:54:54;63.67;;;39.20;;
44434;SDS011;30138;20.964;105.830;2022-11-20T05:00:04;60.60;;;38.53;;
44434;SDS011;30138;20.964;105.830;2022-11-20T05:05:13;61.80;;;37.83;;
44434;SDS011;30138;20.964;105.830;2022-11-20T05:10:20;63.67;;;37.60;;
44434;SDS011;30138;20.964;105.830;2022-11-20T05:15:29;61.22;;;37.25;;
44434;SDS011;30138;20.964;105.830;2022-11-20T05:20:37;58.40;;;37.30;;
44434;SDS011;30138;20.964;105.830;2022-11-20T05:25:45;52.75;;;35.83;;
44434;SDS011;30138;20.964;105.830;2022-11-20T05:30:53;52.65;;;34.53;;
44434;SDS011;30138;20.964;105.830;2022-11-20T05:36:07;56.00;;;34.97;;
44434;SDS011;30138;20.964;105.830;2022-11-20T05:41:15;55.30;;;35.03;;
44434;SDS011;30138;20.964;105.830;2022-11-20T05:46:26;60.08;;;34.88;;
44434;SDS011;30138;20.964;105.830;2022-11-20T05:51:33;55.40;;;35.28;;
44434;SDS011;30138;20.964;105.830;2022-11-20T05:56:40;53.85;;;35.55;;
44434;SDS011;30138;20.964;105.830;2022-11-20T06:01:49;54.22;;;34.95;;
44434;SDS011;30138;20.964;105.830;2022-11-20T06:06:56;57.30;;;35.83;;
44434;SDS011;30138;20.964;105.830;2022-11-20T06:12:05;55.10;;;35.92;;
44434;SDS011;30138;20.964;105.830;2022-11-20T06:17:14;49.10;;;34.67;;
44434;SDS011;30138;20.964;105.830;2022-11-20T06:22:22;49.80;;;33.60;;
44434;SDS011;30138;20.964;105.830;2022-11-20T06:27:30;53.47;;;33.88;;
44434;SDS011;30138;20.964;105.830;2022-11-20T06:32:39;52.70;;;33.72;;
44434;SDS011;30138;20.964;105.830;2022-11-20T06:37:46;48.67;;;33.45;;
44434;SDS011;30138;20.964;105.830;2022-11-20T06:42:53;48.05;;;33.45;;
44434;SDS011;30138;20.964;105.830;2022-11-20T06:48:04;52.50;;;34.53;;
44434;SDS011;30138;20.964;105.830;2022-11-20T06:53:11;50.23;;;32.80;;
44434;SDS011;30138;20.964;105.830;2022-11-20T06:58:19;50.53;;;32.97;;
44434;SDS011;30138;20.964;105.830;2022-11-20T07:03:29;50.30;;;33.47;;
44434;SDS011;30138;20.964;105.830;2022-11-20T07:08:37;46.92;;;33.88;;
44434;SDS011;30138;20.964;105.830;2022-11-20T07:13:45;49.03;;;34.47;;
44434;SDS011;30138;20.964;105.830;2022-11-20T07:18:55;49.25;;;33.95;;
44434;SDS011;30138;20.964;105.830;2022-11-20T07:24:02;53.33;;;34.88;;
44434;SDS011;30138;20.964;105.830;2022-11-20T07:29:10;47.90;;;34.40;;
44434;SDS011;30138;20.964;105.830;2022-11-20T07:34:21;53.53;;;34.63;;
44434;SDS011;30138;20.964;105.830;2022-11-20T07:39:28;51.90;;;34.08;;
44434;SDS011;30138;20.964;105.830;2022-11-20T07:44:36;50.88;;;33.17;;
44434;SDS011;30138;20.964;105.830;2022-11-20T07:49:45;48.25;;;33.08;;
44434;SDS011;30138;20.964;105.830;2022-11-20T07:54:53;45.17;;;33.10;;
44434;SDS011;30138;20.964;105.830;2022-11-20T08:00:02;51.65;;;34.75;;
44434;SDS011;30138;20.964;105.830;2022-11-20T08:05:16;48.50;;;33.85;;
44434;SDS011;30138;20.964;105.830;2022-11-20T08:10:24;52.35;;;35.20;;
44434;SDS011;30138;20.964;105.830;2022-11-20T08:15:31;52.03;;;35.25;;
44434;SDS011;30138;20.964;105.830;2022-11-20T08:20:41;51.33;;;34.88;;
44434;SDS011;30138;20.964;105.830;2022-11-20T08:25:49;55.33;;;35.27;;
44434;SDS011;30138;20.964;105.830;2022-11-20T08:30:58;49.03;;;34.03;;
44434;SDS011;30138;20.964;105.830;2022-11-20T08:36:08;53.05;;;35.65;;
44434;SDS011;30138;20.964;105.830;2022-11-20T08:41:16;55.60;;;37.23;;
44434;SDS011;30138;20.964;105.830;2022-11-20T08:46:31;54.72;;;36.85;;
44434;SDS011;30138;20.964;105.830;2022-11-20T08:56:50;55.78;;;37.30;;
44434;SDS011;30138;20.964;105.830;2022-11-20T09:01:58;55.22;;;36.30;;
44434;SDS011;30138;20.964;105.830;2022-11-20T09:07:07;54.75;;;36.03;;
44434;SDS011;30138;20.964;105.830;2022-11-20T09:12:18;53.88;;;36.83;;
44434;SDS011;30138;20.964;105.830;2022-11-20T09:17:26;55.25;;;36.28;;
44434;SDS011;30138;20.964;105.830;2022-11-20T09:22:34;50.65;;;36.67;;
44434;SDS011;30138;20.964;105.830;2022-11-20T09:27:45;59.53;;;36.92;;
44434;SDS011;30138;20.964;105.830;2022-11-20T09:32:52;52.83;;;36.67;;
44434;SDS011;30138;20.964;105.830;2022-11-20T09:38:06;56.40;;;38.72;;
44434;SDS011;30138;20.964;105.830;2022-11-20T09:43:15;61.28;;;39.72;;
44434;SDS011;30138;20.964;105.830;2022-11-20T09:48:42;63.67;;;39.42;;
44434;SDS011;30138;20.964;105.830;2022-11-20T09:54:13;60.15;;;40.83;;
44434;SDS011;30138;20.964;105.830;2022-11-20T09:59:26;64.15;;;41.10;;
44434;SDS011;30138;20.964;105.830;2022-11-20T10:04:41;59.58;;;40.85;;
44434;SDS011;30138;20.964;105.830;2022-11-20T10:09:57;63.67;;;42.10;;
44434;SDS011;30138;20.964;105.830;2022-11-20T10:15:09;64.45;;;44.03;;
44434;SDS011;30138;20.964;105.830;2022-11-20T10:20:28;68.32;;;43.85;;
44434;SDS011;30138;20.964;105.830;2022-11-20T10:25:52;69.07;;;45.87;;
44434;SDS011;30138;20.964;105.830;2022-11-20T10:31:08;75.93;;;47.67;;
44434;SDS011;30138;20.964;105.830;2022-11-20T10:36:22;72.75;;;49.90;;
44434;SDS011;30138;20.964;105.830;2022-11-20T10:41:38;79.82;;;53.17;;
44434;SDS011;30138;20.964;105.830;2022-11-20T10:46:49;80.60;;;51.58;;
44434;SDS011;30138;20.964;105.830;2022-11-20T10:51:58;81.13;;;50.47;;
44434;SDS011;30138;20.964;105.830;2022-11-20T10:57:20;78.25;;;52.03;;
44434;SDS011;30138;20.964;105.830;2022-11-20T11:02:44;83.18;;;49.05;;
44434;SDS011;30138;20.964;105.830;2022-11-20T11:07:55;83.75;;;51.85;;
44434;SDS011;30138;20.964;105.830;2022-11-20T11:13:04;91.13;;;54.50;;
44434;SDS011;30138;20.964;105.830;2022-11-20T11:18:22;91.00;;;54.72;;
44434;SDS011;30138;20.964;105.830;2022-11-20T11:23:32;96.97;;;55.95;;
44434;SDS011;30138;20.964;105.830;2022-11-20T11:28:43;95.73;;;56.50;;
44434;SDS011;30138;20.964;105.830;2022-11-20T11:34:06;98.63;;;57.97;;
44434;SDS011;30138;20.964;105.830;2022-11-20T11:39:17;98.93;;;57.42;;
44434;SDS011;30138;20.964;105.830;2022-11-20T11:44:28;89.05;;;54.97;;
44434;SDS011;30138;20.964;105.830;2022-11-20T11:55:25;95.38;;;53.30;;
44434;SDS011;30138;20.964;105.830;2022-11-20T12:00:39;88.88;;;55.20;;
44434;SDS011;30138;20.964;105.830;2022-11-20T12:05:55;96.47;;;53.97;;
44434;SDS011;30138;20.964;105.830;2022-11-20T12:11:06;87.28;;;50.03;;
44434;SDS011;30138;20.964;105.830;2022-11-20T12:16:22;84.10;;;49.17;;
44434;SDS011;30138;20.964;105.830;2022-11-20T12:21:31;87.63;;;50.00;;
44434;SDS011;30138;20.964;105.830;2022-11-20T12:26:56;91.65;;;54.45;;
44434;SDS011;30138;20.964;105.830;2022-11-20T12:32:25;97.00;;;56.28;;
44434;SDS011;30138;20.964;105.830;2022-11-20T12:38:08;86.95;;;53.67;;
44434;SDS011;30138;20.964;105.830;2022-11-20T12:43:45;85.18;;;51.70;;
44434;SDS011;30138;20.964;105.830;2022-11-20T12:49:27;81.97;;;46.72;;
44434;SDS011;30138;20.964;105.830;2022-11-20T12:54:45;81.07;;;44.55;;
44434;SDS011;30138;20.964;105.830;2022-11-20T13:00:15;78.53;;;42.78;;
44434;SDS011;30138;20.964;105.830;2022-11-20T13:05:27;69.18;;;41.65;;
44434;SDS011;30138;20.964;105.830;2022-11-20T13:10:43;67.53;;;38.45;;
44434;SDS011;30138;20.964;105.830;2022-11-20T13:15:58;67.53;;;37.92;;
44434;SDS011;30138;20.964;105.830;2022-11-20T13:21:17;64.50;;;35.13;;
44434;SDS011;30138;20.964;105.830;2022-11-20T13:26:27;58.25;;;33.25;;
44434;SDS011;30138;20.964;105.830;2022-11-20T13:31:35;53.70;;;32.88;;
44434;SDS011;30138;20.964;105.830;2022-11-20T13:36:53;59.00;;;32.60;;
44434;SDS011;30138;20.964;105.830;2022-11-20T13:42:02;57.50;;;32.60;;
44434;SDS011;30138;20.964;105.830;2022-11-20T13:47:29;50.17;;;31.67;;
44434;SDS011;30138;20.964;105.830;2022-11-20T13:52:42;58.20;;;36.13;;
44434;SDS011;30138;20.964;105.830;2022-11-20T13:58:07;75.03;;;44.45;;
44434;SDS011;30138;20.964;105.830;2022-11-20T14:03:33;74.68;;;46.28;;
44434;SDS011;30138;20.964;105.830;2022-11-20T14:08:44;80.15;;;45.58;;
44434;SDS011;30138;20.964;105.830;2022-11-20T14:13:57;70.75;;;41.58;;
44434;SDS011;30138;20.964;105.830;2022-11-20T14:19:25;68.70;;;40.05;;
44434;SDS011;30138;20.964;105.830;2022-11-20T14:24:35;66.30;;;36.63;;
44434;SDS011;30138;20.964;105.830;2022-11-20T14:29:43;60.80;;;35.53;;
44434;SDS011;30138;20.964;105.830;2022-11-20T14:34:53;57.95;;;35.10;;
44434;SDS011;30138;20.964;105.830;2022-11-20T14:40:20;59.70;;;35.78;;
44434;SDS011;30138;20.964;105.830;2022-11-20T14:45:31;57.33;;;36.80;;
44434;SDS011;30138;20.964;105.830;2022-11-20T14:50:38;66.47;;;38.72;;
44434;SDS011;30138;20.964;105.830;2022-11-20T14:55:53;70.15;;;39.90;;
44434;SDS011;30138;20.964;105.830;2022-11-20T15:01:04;71.80;;;38.63;;
44434;SDS011;30138;20.964;105.830;2022-11-20T15:06:15;70.25;;;40.50;;
44434;SDS011;30138;20.964;105.830;2022-11-20T15:11:34;67.80;;;41.80;;
44434;SDS011;30138;20.964;105.830;2022-11-20T15:16:44;69.50;;;41.97;;
44434;SDS011;30138;20.964;105.830;2022-11-20T15:21:57;78.85;;;43.40;;
44434;SDS011;30138;20.964;105.830;2022-11-20T15:27:09;81.87;;;45.73;;
44434;SDS011;30138;20.964;105.830;2022-11-20T15:32:18;80.57;;;46.30;;
44434;SDS011;30138;20.964;105.830;2022-11-20T15:37:26;84.57;;;47.65;;
44434;SDS011;30138;20.964;105.830;2022-11-20T15:42:35;83.97;;;49.33;;
44434;SDS011;30138;20.964;105.830;2022-11-20T15:48:04;84.20;;;51.83;;
44434;SDS011;30138;20.964;105.830;2022-11-20T15:53:15;85.63;;;52.78;;
44434;SDS011;30138;20.964;105.830;2022-11-20T15:58:25;88.72;;;55.50;;
44434;SDS011;30138;20.964;105.830;2022-11-20T16:03:32;95.70;;;57.05;;
44434;SDS011;30138;20.964;105.830;2022-11-20T16:08:39;95.57;;;58.20;;
44434;SDS011;30138;20.964;105.830;2022-11-20T16:13:49;96.13;;;58.40;;
44434;SDS011;30138;20.964;105.830;2022-11-20T16:19:12;101.30;;;60.13;;
44434;SDS011;30138;20.964;105.830;2022-11-20T16:24:20;99.97;;;60.88;;
44434;SDS011;30138;20.964;105.830;2022-11-20T16:29:29;102.70;;;60.83;;
44434;SDS011;30138;20.964;105.830;2022-11-20T16:34:37;105.07;;;60.03;;
44434;SDS011;30138;20.964;105.830;2022-11-20T16:39:44;104.13;;;60.58;;
44434;SDS011;30138;20.964;105.830;2022-11-20T16:44:54;105.45;;;61.28;;
44434;SDS011;30138;20.964;105.830;2022-11-20T16:50:01;99.20;;;61.80;;
44434;SDS011;30138;20.964;105.830;2022-11-20T16:55:11;106.95;;;61.22;;
44434;SDS011;30138;20.964;105.830;2022-11-20T17:00:20;100.47;;;60.58;;
44434;SDS011;30138;20.964;105.830;2022-11-20T17:05:28;105.15;;;61.72;;
44434;SDS011;30138;20.964;105.830;2022-11-20T17:10:36;95.25;;;58.88;;
44434;SDS011;30138;20.964;105.830;2022-11-20T17:15:45;93.22;;;57.72;;
44434;SDS011;30138;20.964;105.830;2022-11-20T17:20:53;102.95;;;60.58;;
44434;SDS011;30138;20.964;105.830;2022-11-20T17:26:04;99.82;;;59.72;;
44434;SDS011;30138;20.964;105.830;2022-11-20T17:31:15;99.22;;;61.05;;
44434;SDS011;30138;20.964;105.830;2022-11-20T17:36:22;106.70;;;61.35;;
44434;SDS011;30138;20.964;105.830;2022-11-20T17:41:30;103.53;;;59.45;;
44434;SDS011;30138;20.964;105.830;2022-11-20T17:46:39;98.88;;;57.72;;
44434;SDS011;30138;20.964;105.830;2022-11-20T17:51:46;97.68;;;59.17;;
44434;SDS011;30138;20.964;105.830;2022-11-20T17:56:53;94.50;;;57.90;;
44434;SDS011;30138;20.964;105.830;2022-11-20T18:02:18;94.30;;;59.40;;
44434;SDS011;30138;20.964;105.830;2022-11-20T18:07:25;95.30;;;57.10;;
44434;SDS011;30138;20.964;105.830;2022-11-20T18:12:33;100.88;;;57.80;;
44434;SDS011;30138;20.964;105.830;2022-11-20T18:17:42;94.05;;;57.58;;
44434;SDS011;30138;20.964;105.830;2022-11-20T18:22:49;96.05;;;58.58;;
44434;SDS011;30138;20.964;105.830;2022-11-20T18:27:55;91.07;;;56.83;;
44434;SDS011;30138;20.964;105.830;2022-11-20T18:33:05;93.65;;;58.30;;
44434;SDS011;30138;20.964;105.830;2022-11-20T18:38:12;97.13;;;59.25;;
44434;SDS011;30138;20.964;105.830;2022-11-20T18:43:19;102.22;;;57.78;;
44434;SDS011;30138;20.964;105.830;2022-11-20T18:48:44;93.47;;;58.42;;
44434;SDS011;30138;20.964;105.830;2022-11-20T18:53:51;110.32;;;61.22;;
44434;SDS011;30138;20.964;105.830;2022-11-20T18:58:59;98.78;;;60.13;;
44434;SDS011;30138;20.964;105.830;2022-11-20T19:04:08;94.40;;;60.10;;
44434;SDS011;30138;20.964;105.830;2022-11-20T19:09:16;103.43;;;62.15;;
44434;SDS011;30138;20.964;105.830;2022-11-20T19:14:24;99.63;;;59.97;;
44434;SDS011;30138;20.964;105.830;2022-11-20T19:19:33;111.97;;;62.95;;
44434;SDS011;30138;20.964;105.830;2022-11-20T19:24:40;104.47;;;61.20;;
44434;SDS011;30138;20.964;105.830;2022-11-20T19:29:47;106.38;;;60.20;;
44434;SDS011;30138;20.964;105.830;2022-11-20T19:35:01;96.78;;;58.67;;
44434;SDS011;30138;20.964;105.830;2022-11-20T19:40:10;101.83;;;59.03;;
44434;SDS011;30138;20.964;105.830;2022-11-20T19:45:17;107.82;;;59.92;;
44434;SDS011;30138;20.964;105.830;2022-11-20T19:50:26;110.93;;;60.38;;
44434;SDS011;30138;20.964;105.830;2022-11-20T19:55:36;115.50;;;62.23;;
44434;SDS011;30138;20.964;105.830;2022-11-20T20:00:43;113.53;;;62.28;;
44434;SDS011;30138;20.964;105.830;2022-11-20T20:05:52;112.70;;;62.05;;
44434;SDS011;30138;20.964;105.830;2022-11-20T20:11:00;125.60;;;73.20;;
44434;SDS011;30138;20.964;105.830;2022-11-20T20:16:16;167.52;;;94.90;;
44434;SDS011;30138;20.964;105.830;2022-11-20T20:21:28;196.80;;;115.80;;
44434;SDS011;30138;20.964;105.830;2022-11-20T20:31:43;216.38;;;123.70;;
44434;SDS011;30138;20.964;105.830;2022-11-20T20:36:53;210.13;;;123.78;;
44434;SDS011;30138;20.964;105.830;2022-11-20T20:42:01;227.35;;;127.80;;
44434;SDS011;30138;20.964;105.830;2022-11-20T20:47:08;221.18;;;125.90;;
44434;SDS011;30138;20.964;105.830;2022-11-20T20:52:19;206.07;;;122.35;;
44434;SDS011;30138;20.964;105.830;2022-11-20T20:57:28;217.45;;;121.57;;
44434;SDS011;30138;20.964;105.830;2022-11-20T21:02:35;208.15;;;115.97;;
44434;SDS011;30138;20.964;105.830;2022-11-20T21:07:44;188.80;;;112.80;;
44434;SDS011;30138;20.964;105.830;2022-11-20T21:13:07;182.40;;;107.18;;
44434;SDS011;30138;20.964;105.830;2022-11-20T21:18:15;172.65;;;101.97;;
44434;SDS011;30138;20.964;105.830;2022-11-20T21:23:25;172.85;;;96.65;;
44434;SDS011;30138;20.964;105.830;2022-11-20T21:28:33;162.95;;;95.78;;
44434;SDS011;30138;20.964;105.830;2022-11-20T21:33:42;149.65;;;88.20;;
44434;SDS011;30138;20.964;105.830;2022-11-20T21:38:52;146.43;;;86.28;;
44434;SDS011;30138;20.964;105.830;2022-11-20T21:44:00;130.15;;;78.45;;
44434;SDS011;30138;20.964;105.830;2022-11-20T21:49:08;139.23;;;75.70;;
44434;SDS011;30138;20.964;105.830;2022-11-20T21:54:20;126.97;;;72.68;;
44434;SDS011;30138;20.964;105.830;2022-11-20T21:59:26;114.03;;;67.75;;
44434;SDS011;30138;20.964;105.830;2022-11-20T22:04:33;117.25;;;66.88;;
44434;SDS011;30138;20.964;105.830;2022-11-20T22:09:42;112.20;;;64.97;;
44434;SDS011;30138;20.964;105.830;2022-11-20T22:14:50;115.07;;;63.28;;
44434;SDS011;30138;20.964;105.830;2022-11-20T22:19:58;112.80;;;63.47;;
44434;SDS011;30138;20.964;105.830;2022-11-20T22:25:07;106.70;;;61.80;;
44434;SDS011;30138;20.964;105.830;2022-11-20T22:30:14;108.43;;;62.17;;
44434;SDS011;30138;20.964;105.830;2022-11-20T22:35:21;102.70;;;59.22;;
44434;SDS011;30138;20.964;105.830;2022-11-20T22:40:31;102.75;;;59.28;;
44434;SDS011;30138;20.964;105.830;2022-11-20T22:45:39;105.40;;;59.15;;
44434;SDS011;30138;20.964;105.830;2022-11-20T22:50:47;103.63;;;57.92;;
44434;SDS011;30138;20.964;105.830;2022-11-20T22:55:57;105.75;;;58.13;;
44434;SDS011;30138;20.964;105.830;2022-11-20T23:01:06;102.50;;;56.60;;
44434;SDS011;30138;20.964;105.830;2022-11-20T23:06:15;106.75;;;58.03;;
44434;SDS011;30138;20.964;105.830;2022-11-20T23:11:25;104.43;;;58.10;;
44434;SDS011;30138;20.964;105.830;2022-11-20T23:16:34;106.15;;;58.83;;
44434;SDS011;30138;20.964;105.830;2022-11-20T23:21:41;102.25;;;55.83;;
44434;SDS011;30138;20.964;105.830;2022-11-20T23:26:50;102.47;;;54.42;;
44434;SDS011;30138;20.964;105.830;2022-11-20T23:31:57;93.93;;;52.97;;
44434;SDS011;30138;20.964;105.830;2022-11-20T23:37:05;97.75;;;51.58;;
44434;SDS011;30138;20.964;105.830;2022-11-20T23:42:14;91.20;;;49.03;;
44434;SDS011;30138;20.964;105.830;2022-11-20T23:47:22;90.25;;;48.63;;
44434;SDS011;30138;20.964;105.830;2022-11-20T23:52:29;94.35;;;48.53;;
44434;SDS011;30138;20.964;105.830;2022-11-20T23:57:39;85.25;;;47.35;;
